WetterOnline ( https://www.wetteronline.de )

Wetter aktuell Ulm

Aktuelles Wetter: Ulm-Mähringen (592m)

6-stündlich | Neueste Meldungen
Ortszeit Temperatur Wetter
So, 25.09. 20:00 10.9° C bewölkt
So, 25.09. 14:00 14.2° C bewölkt
So, 25.09. 8:00 9.2° C Nebel
So, 25.09. 2:00 9.9° C Nebel
Sa, 24.09. 20:00 11.9° C Regen
Sa, 24.09. 14:00 12.5° C leichter Regen
Sa, 24.09. 8:00 8.7° C leicht bewölkt
Sa, 24.09. 2:00 8.2° C bedeckt
Ortszeit Temperatur Wetter
So, 25.09. 22:00 10.8° C bedeckt
So, 25.09. 21:50 10.8° C bedeckt
So, 25.09. 21:40 10.8° C bedeckt
So, 25.09. 21:30 10.8° C bedeckt
So, 25.09. 21:20 10.8° C bedeckt
So, 25.09. 21:10 10.8° C Sprühregen
So, 25.09. 21:00 10.8° C bedeckt
So, 25.09. 20:30 10.8° C bedeckt
So, 25.09. 20:00 10.9° C bewölkt
So, 25.09. 19:30 11.2° C bewölkt
So, 25.09. 19:00 12.0° C wolkig
Ortszeit Relative Feuchte Sichtweite
So, 25.09. 20:00 86% 30 km
So, 25.09. 14:00 72% 55 km
So, 25.09. 8:00 99% 0.5 km
So, 25.09. 2:00 99% 4.0 km
Sa, 24.09. 20:00 97% 3.4 km
Sa, 24.09. 14:00 95% 7 km
Sa, 24.09. 8:00 95% 7 km
Sa, 24.09. 2:00 96% 18 km
Ortszeit Relative Feuchte Sichtweite
So, 25.09. 22:00 86% 50 km
So, 25.09. 21:50 86% -
So, 25.09. 21:40 87% -
So, 25.09. 21:30 87% 26 km
So, 25.09. 21:20 87% -
So, 25.09. 21:10 87% -
So, 25.09. 21:00 88% 26 km
So, 25.09. 20:30 87% 26 km
So, 25.09. 20:00 86% 30 km
So, 25.09. 19:30 84% 35 km
So, 25.09. 19:00 79% 40 km
Ortszeit Niederschlagsmenge Niederschlagsart
So, 25.09. 20:00 0.0 l/m2 in 12 Std. -
So, 25.09. 14:00 0.0 l/m2 in 6 Std. -
So, 25.09. 8:00 0.9 l/m2 in 12 Std. -
So, 25.09. 2:00 0.9 l/m2 in 6 Std. Regen
Sa, 24.09. 20:00 11 l/m2 in 12 Std. Regen
Sa, 24.09. 14:00 4 l/m2 in 6 Std. Regen
Sa, 24.09. 8:00 0.1 l/m2 in 12 Std. Regen
Sa, 24.09. 2:00 0.0 l/m2 in 6 Std. -
Ortszeit Niederschlagsmenge Niederschlagsart
So, 25.09. 22:00 0.1 l/m2 in 1 Std. Sprühregen
So, 25.09. 21:50 keine Meldung -
So, 25.09. 21:40 keine Meldung -
So, 25.09. 21:30 0.1 l/m2 in 1 Std. Schnee
So, 25.09. 21:20 keine Meldung -
So, 25.09. 21:10 keine Meldung -
So, 25.09. 21:00 0.1 l/m2 in 1 Std. Regen
So, 25.09. 20:30 0.0 l/m2 in 1 Std. -
So, 25.09. 20:00 0.0 l/m2 in 1 Std. -
So, 25.09. 19:30 0.0 l/m2 in 1 Std. -
So, 25.09. 19:00 0.0 l/m2 in 1 Std. -
Ortszeit Stärke Spitze Richtung
km/h Bft. km/h Grad Sektor
So, 25.09. 20:00 4 1 22 280° W
So, 25.09. 14:00 9 2 17 310° NW
So, 25.09. 8:00 4 1 18 210° SW
So, 25.09. 2:00 4 1 11 220° SW
Sa, 24.09. 20:00 4 1 14 230° SW
Sa, 24.09. 14:00 9 2 15 210° SW
Sa, 24.09. 8:00 6 1 7 260° W
Sa, 24.09. 2:00 4 1 7 280° W
Ortszeit Stärke Spitze Richtung
km/h Bft. km/h Grad Sektor
So, 25.09. 22:00 7 2 14 300° NW
So, 25.09. 21:50 7 2 - 300° NW
So, 25.09. 21:40 7 2 - 310° NW
So, 25.09. 21:30 7 2 14 290° W
So, 25.09. 21:20 7 2 - 290° W
So, 25.09. 21:10 6 1 - 290° W
So, 25.09. 21:00 4 1 7 270° W
So, 25.09. 20:30 4 1 7 260° W
So, 25.09. 20:00 4 1 11 280° W
So, 25.09. 19:30 6 1 9 310° NW
So, 25.09. 19:00 9 2 20 320° NW
Ortszeit Untergrenze Bedeckung Gattung
total tief tief mittel hoch
So, 25.09. 20:00 1050 m 7/8 7/8 - - -
So, 25.09. 14:00 690 m 7/8 7/8 - - -
So, 25.09. 8:00 60 m 8/8 8/8 - - -
So, 25.09. 2:00 <30 m 8/8 0/8 - - -
Sa, 24.09. 20:00 30 m 7/8 7/8 - - -
Sa, 24.09. 14:00 180 m 8/8 8/8 - - -
Sa, 24.09. 8:00 2400 m 5/8 3/8 - - -
Sa, 24.09. 2:00 3900 m 8/8 8/8 - - -
Ortszeit Bedeckungsgrad in Achtel und Wolkenuntergrenze
So, 25.09. 22:00 1(870m) 8(1800m) 8(2700m)
So, 25.09. 21:50 1(870m) 8(1800m) 8(2700m)
So, 25.09. 21:40 8
So, 25.09. 21:30 3(510m) 7(1380m) 8(2100m)
So, 25.09. 21:20 3(510m) 7(1380m) 8(2100m)
So, 25.09. 21:10 8
So, 25.09. 21:00 3(660m) 5(1500m) 8(2100m)
So, 25.09. 20:30 2(1500m) 8(2100m)
So, 25.09. 20:00 1(1050m) 7(1350m) 7(1500m)
So, 25.09. 19:30 5(1110m) 7(2100m)
So, 25.09. 19:00 4(2100m) 6(7200m) 7(7800m)
Ortszeit Luftdruck NN (hPa) Tendenz (hPa in 3 Std.)
So, 25.09. 20:00 1012 + 0,5
So, 25.09. 14:00 1011 - 0,7
So, 25.09. 8:00 1013 - 0,3
So, 25.09. 2:00 1014 - 0,1
Sa, 24.09. 20:00 1013 + 0,1
Sa, 24.09. 14:00 1014 + 0,1
Sa, 24.09. 8:00 1014 - 0,6
Sa, 24.09. 2:00 1016 - 0,5
Ortszeit Luftdruck NN (hPa) Tendenz (hPa in 3 Std.)
So, 25.09. 22:00 1013 + 1,0
So, 25.09. 21:50 1013 keine Meldung
So, 25.09. 21:40 1013 keine Meldung
So, 25.09. 21:30 1013 + 0,9
So, 25.09. 21:20 1013 keine Meldung
So, 25.09. 21:10 1012 keine Meldung
So, 25.09. 21:00 1012 + 0,8
So, 25.09. 20:30 1012 + 0,8
So, 25.09. 20:00 1012 + 0,5
So, 25.09. 19:30 1012 + 0,5
So, 25.09. 19:00 1011 - 0,1
Ortszeit Schneehöhe (cm)
So, 25.09. 20:00 0
So, 25.09. 14:00 0
So, 25.09. 8:00 0
So, 25.09. 2:00 0
Sa, 24.09. 20:00 0
Sa, 24.09. 14:00 0
Sa, 24.09. 8:00 0
Sa, 24.09. 2:00 0
Ortszeit Schneehöhe (cm)
So, 25.09. 22:00 0
So, 25.09. 21:50 0
So, 25.09. 21:40 0
So, 25.09. 21:30 0
So, 25.09. 21:20 0
So, 25.09. 21:10 0
So, 25.09. 21:00 0
So, 25.09. 20:30 0
So, 25.09. 20:00 0
So, 25.09. 19:30 0
So, 25.09. 19:00 0
Link zu dieser Seite / Seite empfehlen

Das Wetter in ...